Nearby METAR Reports

 

K9MN - St Mary Hospital, Minnesota, USA
Distance from station: SW 3mi, 4km
Updated: 06/07/2020 12:15am
Mostly cloudy
Mostly cloudy
 Wind from E
Wind: E 8 mph , 13 km/h
Temperature: 64°F , 18°C
Dew Point: 57°F , 14°C
Humidity: 78%
Barometer: 30.04 inHg , 1017.3 hPa
Clouds: Mostly cloudy
Visibility: 10 miles , 16 km
Cloud details: Mostly cloudy 11000 ft
2020/06/07 05:15 K9MN 070515Z AUTO 09007KT 10SM BKN110 18/14 A3004 RMK AO1 P0001 T01800144
KRST - Rochester, Minnesota, USA
Distance from station: SSW 10mi, 16km
Updated: 06/06/2020 11:54pm
Light rain, Mostly cloudy
Light rain, Mostly cloudy
 Wind from E
Wind: E 15 mph , 24 km/h
Temperature: 64°F , 18°C
Dew Point: 54°F , 12°C
Humidity: 68%
Barometer: 30.03 inHg , 1016.9 hPa
Summary: Light rain
Clouds: Mostly cloudy
Visibility: 10 miles , 16 km
Cloud details: Few Clouds 4900 ft
Mostly cloudy 6000 ft
2020/06/07 04:54 KRST 070454Z AUTO 09013KT 10SM -RA FEW049 BKN060 18/12 A3003 RMK AO2 LTG DSNT NE AND E RAE09B26 PRESFR SLP164 P0000 T01780122
 
KTOB - Dodge Center, Minnesota, USA
Distance from station: W 19mi, 30km
Updated: 06/07/2020 12:15am
Nearby thunderstorm, Partly cloudy
Nearby thunderstorm, Partly cloudy
 Wind from E
Wind: E 5 mph , 7 km/h
Temperature: 64°F , 18°C
Dew Point: 55°F , 13°C
Humidity: 73%
Barometer: 30.04 inHg , 1017.3 hPa
Summary: Nearby Thunderstorm
Clouds: Partly cloudy
Visibility: 10 miles , 16 km
Cloud details: Partly cloudy 9000 ft
2020/06/07 05:15 KTOB 070515Z AUTO 09004KT 10SM VCTS SCT090 18/13 A3004 RMK AO2 LTG DSNT N AND NW
KFKA - Preston, Minnesota, USA
Distance from station: SSE 28mi, 45km
Updated: 06/07/2020 12:16am
Overcast
Overcast
 Wind from ENE
Wind: ENE 12 mph , 19 km/h
Temperature: 64°F , 18°C
Dew Point: 55°F , 13°C
Humidity: 73%
Barometer: 30.06 inHg , 1017.9 hPa
Clouds: Overcast
Visibility: 10 miles , 16 km
Cloud details: Mostly cloudy 4600 ft
Overcast 5500 ft
2020/06/07 05:16 KFKA 070516Z AUTO 06010KT 10SM BKN046 OVC055 18/13 A3006 RMK AO2 LTG DSNT NW THRU E T01750134
 
KAUM - Austin Muni, Minnesota, USA
Distance from station: SW 35mi, 57km
Updated: 06/07/2020 12:15am
Overcast
Overcast
 Wind from E
Wind: E 8 mph , 13 km/h
Temperature: 70°F , 21°C
Dew Point: 55°F , 13°C
Humidity: 60%
Barometer: 30.02 inHg , 1016.6 hPa
Clouds: Overcast
Visibility: 10 miles , 16 km
Cloud details: Overcast 4700 ft
2020/06/07 05:15 KAUM 070515Z AUTO 10007KT 10SM OVC047 21/13 A3002 RMK AO2 LTG DSNT N AND NW
KONA - Winona Muni, Minnesota, USA
Distance from station: E 37mi, 59km
Updated: 06/07/2020 12:16am
Mostly cloudy
Mostly cloudy
 Wind from ESE
Wind: ESE 5 mph , 7 km/h
Temperature: 68°F , 20°C
Dew Point: 55°F , 13°C
Humidity: 64%
Barometer: 30.05 inHg , 1017.6 hPa
Clouds: Mostly cloudy
Visibility: 10 miles , 16 km
Cloud details: Partly cloudy 6500 ft
Mostly cloudy 9000 ft
Mostly cloudy 12000 ft
2020/06/07 05:16 KONA 070516Z AUTO 12004KT 10SM SCT065 BKN090 BKN120 20/13 A3005 RMK AO2 LTG DSNT SW
 
KRGK - Red Wing, Minnesota, USA
Distance from station: N 38mi, 61km
Updated: 06/07/2020 12:15am
Light rain, Mostly cloudy
Light rain, Mostly cloudy
 Wind from ESE
Wind: ESE 13 mph , 20 km/h
Temperature: 63°F , 17°C
Dew Point: 59°F , 15°C
Humidity: 88%
Barometer: 29.98 inHg , 1015.2 hPa
Summary: Light rain
Clouds: Mostly cloudy
Visibility: 10 miles , 16 km
Cloud details: Partly cloudy 4000 ft
Partly cloudy 7500 ft
Mostly cloudy 9500 ft
2020/06/07 05:15 KRGK 070515Z AUTO 12011KT 10SM -RA SCT040 SCT075 BKN095 17/15 A2998 RMK AO2 LTG DSNT SW P0001
KOWA - Owatonna, Minnesota, USA
Distance from station: W 41mi, 65km
Updated: 06/07/2020 12:13am
Light thunderstorm, Rain, Partly cloudy
Light thunderstorm, Rain, Partly cloudy
 Wind from E
Wind: E 22 mph , 35 km/h, Gust: 28 mph , 44 km/h
Temperature: 64°F , 18°C
Dew Point: 55°F , 13°C
Humidity: 73%
Barometer: 29.97 inHg , 1014.9 hPa
Summary: Light thunderstorm, Rain
Clouds: Partly cloudy
Visibility: 10 miles , 16 km
Cloud details: Partly cloudy 6000 ft
Partly cloudy 8000 ft
2020/06/07 05:13 KOWA 070513Z AUTO 10019G24KT 10SM -TSRA SCT060 SCT080 18/13 A2997 RMK AO2 LTG DSNT N THRU SE
 
KSYN - Stanton, Minnesota, USA
Distance from station: NW 42mi, 68km
Updated: 06/07/2020 12:15am

 Wind from E
Wind: E 15 mph , 24 km/h, Gust: 20 mph , 31 km/h
Visibility: 10 miles , 16 km
2020/06/07 05:15 KSYN 070515Z AUTO 10013G17KT 10SM -VCTSRA SCT044 SCT060 SCT070 18/14 A2993 RMK AO2 LTG DSNT SE THRU SW T01750137
KFBL - Faribault Muni, Minnesota, USA
Distance from station: WNW 48mi, 77km
Updated: 06/07/2020 12:15am
Light thunderstorm, Rain, Mostly cloudy
Light thunderstorm, Rain, Mostly cloudy
 Wind from E
Wind: E 20 mph , 31 km/h, Gust: 26 mph , 43 km/h
Temperature: 64°F , 18°C
Dew Point: 57°F , 14°C
Humidity: 78%
Barometer: 29.94 inHg , 1013.9 hPa
Summary: Light thunderstorm, Rain
Clouds: Mostly cloudy
Visibility: 10 miles , 16 km
Cloud details: Partly cloudy 2500 ft
Partly cloudy 6000 ft
Mostly cloudy 8000 ft
2020/06/07 05:15 KFBL 070515Z AUTO 10017G23KT 10SM -TSRA SCT025 SCT060 BKN080 18/14 A2994 RMK AO2 LTG DSNT N THRU SE